sensor_id;sensor_type;location;lat;lon;timestamp;temperature;humidity
18888;DHT22;9576;47.792;9.628;2024-02-21T00:02:08;4.10;99.90
18888;DHT22;9576;47.792;9.628;2024-02-21T00:05:10;4.10;99.90
18888;DHT22;9576;47.792;9.628;2024-02-21T00:08:12;4.10;99.90
18888;DHT22;9576;47.792;9.628;2024-02-21T00:11:13;4.00;99.90
18888;DHT22;9576;47.792;9.628;2024-02-21T00:14:17;3.90;99.90
18888;DHT22;9576;47.792;9.628;2024-02-21T00:17:18;4.00;99.90
18888;DHT22;9576;47.792;9.628;2024-02-21T00:20:20;4.00;99.90
18888;DHT22;9576;47.792;9.628;2024-02-21T00:23:22;3.90;99.90
18888;DHT22;9576;47.792;9.628;2024-02-21T00:26:23;3.80;99.90
18888;DHT22;9576;47.792;9.628;2024-02-21T00:29:27;3.70;99.90
18888;DHT22;9576;47.792;9.628;2024-02-21T00:32:29;3.70;99.90
18888;DHT22;9576;47.792;9.628;2024-02-21T00:35:30;3.70;99.90
18888;DHT22;9576;47.792;9.628;2024-02-21T00:38:32;3.70;99.90
18888;DHT22;9576;47.792;9.628;2024-02-21T00:41:34;3.70;99.90
18888;DHT22;9576;47.792;9.628;2024-02-21T00:44:37;3.70;99.90
18888;DHT22;9576;47.792;9.628;2024-02-21T00:47:39;3.70;99.90
18888;DHT22;9576;47.792;9.628;2024-02-21T00:50:40;3.70;99.90
18888;DHT22;9576;47.792;9.628;2024-02-21T00:53:42;3.70;99.90
18888;DHT22;9576;47.792;9.628;2024-02-21T00:56:44;3.70;99.90
18888;DHT22;9576;47.792;9.628;2024-02-21T00:59:47;3.70;99.90
18888;DHT22;9576;47.792;9.628;2024-02-21T01:02:49;3.70;99.90
18888;DHT22;9576;47.792;9.628;2024-02-21T01:05:50;3.70;99.90
18888;DHT22;9576;47.792;9.628;2024-02-21T01:08:52;3.70;99.90
18888;DHT22;9576;47.792;9.628;2024-02-21T01:11:54;3.70;99.90
18888;DHT22;9576;47.792;9.628;2024-02-21T01:14:57;3.60;99.90
18888;DHT22;9576;47.792;9.628;2024-02-21T01:17:58;3.60;99.90
18888;DHT22;9576;47.792;9.628;2024-02-21T01:21:00;3.70;99.90
18888;DHT22;9576;47.792;9.628;2024-02-21T01:24:02;3.60;99.90
18888;DHT22;9576;47.792;9.628;2024-02-21T01:27:04;3.60;99.90
18888;DHT22;9576;47.792;9.628;2024-02-21T01:30:07;3.50;99.90
18888;DHT22;9576;47.792;9.628;2024-02-21T01:33:10;3.30;99.90
18888;DHT22;9576;47.792;9.628;2024-02-21T01:36:12;3.30;99.90
18888;DHT22;9576;47.792;9.628;2024-02-21T01:39:14;3.30;99.90
18888;DHT22;9576;47.792;9.628;2024-02-21T01:42:16;3.20;99.90
18888;DHT22;9576;47.792;9.628;2024-02-21T01:45:19;3.20;99.90
18888;DHT22;9576;47.792;9.628;2024-02-21T01:48:21;3.20;99.90
18888;DHT22;9576;47.792;9.628;2024-02-21T01:51:23;3.30;99.90
18888;DHT22;9576;47.792;9.628;2024-02-21T01:54:25;3.30;99.90
18888;DHT22;9576;47.792;9.628;2024-02-21T01:57:29;3.40;99.90
18888;DHT22;9576;47.792;9.628;2024-02-21T02:00:32;3.40;99.90
18888;DHT22;9576;47.792;9.628;2024-02-21T02:03:34;3.40;99.90
18888;DHT22;9576;47.792;9.628;2024-02-21T02:06:36;3.50;99.90
18888;DHT22;9576;47.792;9.628;2024-02-21T02:09:37;3.50;99.90
18888;DHT22;9576;47.792;9.628;2024-02-21T02:12:39;3.40;99.90
18888;DHT22;9576;47.792;9.628;2024-02-21T02:15:43;3.40;99.90
18888;DHT22;9576;47.792;9.628;2024-02-21T02:18:44;3.40;99.90
18888;DHT22;9576;47.792;9.628;2024-02-21T02:21:49;3.30;99.90
18888;DHT22;9576;47.792;9.628;2024-02-21T02:24:55;3.20;99.90
18888;DHT22;9576;47.792;9.628;2024-02-21T02:27:57;3.30;99.90
18888;DHT22;9576;47.792;9.628;2024-02-21T02:30:59;3.30;99.90
18888;DHT22;9576;47.792;9.628;2024-02-21T02:34:01;3.20;99.90
18888;DHT22;9576;47.792;9.628;2024-02-21T02:37:02;3.30;99.90
18888;DHT22;9576;47.792;9.628;2024-02-21T02:40:06;3.40;99.90
18888;DHT22;9576;47.792;9.628;2024-02-21T02:43:08;3.30;99.90
18888;DHT22;9576;47.792;9.628;2024-02-21T02:46:10;3.40;99.90
18888;DHT22;9576;47.792;9.628;2024-02-21T02:49:12;3.20;99.90
18888;DHT22;9576;47.792;9.628;2024-02-21T02:52:13;3.30;99.90
18888;DHT22;9576;47.792;9.628;2024-02-21T02:55:16;3.40;99.90
18888;DHT22;9576;47.792;9.628;2024-02-21T02:58:18;3.40;99.90
18888;DHT22;9576;47.792;9.628;2024-02-21T03:01:20;3.40;99.90
18888;DHT22;9576;47.792;9.628;2024-02-21T03:04:21;3.40;99.90
18888;DHT22;9576;47.792;9.628;2024-02-21T03:07:23;3.50;99.90
18888;DHT22;9576;47.792;9.628;2024-02-21T03:10:26;3.40;99.90
18888;DHT22;9576;47.792;9.628;2024-02-21T03:13:28;3.40;99.90
18888;DHT22;9576;47.792;9.628;2024-02-21T03:16:30;3.40;99.90
18888;DHT22;9576;47.792;9.628;2024-02-21T03:19:31;3.50;99.90
18888;DHT22;9576;47.792;9.628;2024-02-21T03:22:33;3.50;99.90
18888;DHT22;9576;47.792;9.628;2024-02-21T03:25:36;3.50;99.90
18888;DHT22;9576;47.792;9.628;2024-02-21T03:28:38;3.50;99.90
18888;DHT22;9576;47.792;9.628;2024-02-21T03:31:40;3.50;99.90
18888;DHT22;9576;47.792;9.628;2024-02-21T03:34:41;3.50;99.90
18888;DHT22;9576;47.792;9.628;2024-02-21T03:37:44;3.50;99.90
18888;DHT22;9576;47.792;9.628;2024-02-21T03:40:47;3.50;99.90
18888;DHT22;9576;47.792;9.628;2024-02-21T03:43:49;3.50;99.90
18888;DHT22;9576;47.792;9.628;2024-02-21T03:46:51;3.60;99.90
18888;DHT22;9576;47.792;9.628;2024-02-21T03:49:52;3.60;99.90
18888;DHT22;9576;47.792;9.628;2024-02-21T03:52:54;3.60;99.90
18888;DHT22;9576;47.792;9.628;2024-02-21T03:55:57;3.70;99.90
18888;DHT22;9576;47.792;9.628;2024-02-21T03:59:03;3.50;99.90
18888;DHT22;9576;47.792;9.628;2024-02-21T04:02:04;3.60;99.90
18888;DHT22;9576;47.792;9.628;2024-02-21T04:05:08;3.50;99.90
18888;DHT22;9576;47.792;9.628;2024-02-21T04:08:12;3.70;99.90
18888;DHT22;9576;47.792;9.628;2024-02-21T04:11:15;3.70;99.90
18888;DHT22;9576;47.792;9.628;2024-02-21T04:14:17;3.70;99.90
18888;DHT22;9576;47.792;9.628;2024-02-21T04:17:19;3.70;99.90
18888;DHT22;9576;47.792;9.628;2024-02-21T04:20:21;3.70;99.90
18888;DHT22;9576;47.792;9.628;2024-02-21T04:23:22;3.70;99.90
18888;DHT22;9576;47.792;9.628;2024-02-21T04:26:25;3.70;99.90
18888;DHT22;9576;47.792;9.628;2024-02-21T04:29:27;3.70;99.90
18888;DHT22;9576;47.792;9.628;2024-02-21T04:32:29;3.70;99.90
18888;DHT22;9576;47.792;9.628;2024-02-21T04:35:31;3.60;99.90
18888;DHT22;9576;47.792;9.628;2024-02-21T04:38:32;3.60;99.90
18888;DHT22;9576;47.792;9.628;2024-02-21T04:41:35;3.50;99.90
18888;DHT22;9576;47.792;9.628;2024-02-21T04:44:37;3.50;99.90
18888;DHT22;9576;47.792;9.628;2024-02-21T04:47:39;3.60;99.90
18888;DHT22;9576;47.792;9.628;2024-02-21T04:50:41;3.50;99.90
18888;DHT22;9576;47.792;9.628;2024-02-21T04:53:42;3.50;99.90
18888;DHT22;9576;47.792;9.628;2024-02-21T04:56:45;3.40;99.90
18888;DHT22;9576;47.792;9.628;2024-02-21T04:59:47;3.20;99.90
18888;DHT22;9576;47.792;9.628;2024-02-21T05:02:49;3.10;99.90
18888;DHT22;9576;47.792;9.628;2024-02-21T05:05:50;3.20;99.90
18888;DHT22;9576;47.792;9.628;2024-02-21T05:08:52;3.10;99.90
18888;DHT22;9576;47.792;9.628;2024-02-21T05:11:57;3.10;99.90
18888;DHT22;9576;47.792;9.628;2024-02-21T05:15:00;3.10;99.90
18888;DHT22;9576;47.792;9.628;2024-02-21T05:18:03;3.20;99.90
18888;DHT22;9576;47.792;9.628;2024-02-21T05:21:05;3.20;99.90
18888;DHT22;9576;47.792;9.628;2024-02-21T05:24:06;3.20;99.90
18888;DHT22;9576;47.792;9.628;2024-02-21T05:27:09;3.20;99.90
18888;DHT22;9576;47.792;9.628;2024-02-21T05:30:11;3.30;99.90
18888;DHT22;9576;47.792;9.628;2024-02-21T05:33:13;3.30;99.90
18888;DHT22;9576;47.792;9.628;2024-02-21T05:36:21;3.30;99.90
18888;DHT22;9576;47.792;9.628;2024-02-21T05:39:23;3.20;99.90
18888;DHT22;9576;47.792;9.628;2024-02-21T05:42:26;3.30;99.90
18888;DHT22;9576;47.792;9.628;2024-02-21T05:45:27;3.20;99.90
18888;DHT22;9576;47.792;9.628;2024-02-21T05:48:29;3.40;99.90
18888;DHT22;9576;47.792;9.628;2024-02-21T05:51:32;3.50;99.90
18888;DHT22;9576;47.792;9.628;2024-02-21T05:54:33;3.50;99.90
18888;DHT22;9576;47.792;9.628;2024-02-21T05:57:37;3.50;99.90
18888;DHT22;9576;47.792;9.628;2024-02-21T06:00:38;3.50;99.90
18888;DHT22;9576;47.792;9.628;2024-02-21T06:03:40;3.50;99.90
18888;DHT22;9576;47.792;9.628;2024-02-21T06:06:42;3.50;99.90
18888;DHT22;9576;47.792;9.628;2024-02-21T06:09:44;3.50;99.90
18888;DHT22;9576;47.792;9.628;2024-02-21T06:12:47;3.40;99.90
18888;DHT22;9576;47.792;9.628;2024-02-21T06:15:48;3.30;99.90
18888;DHT22;9576;47.792;9.628;2024-02-21T06:18:50;3.40;99.90
18888;DHT22;9576;47.792;9.628;2024-02-21T06:21:52;3.40;99.90
18888;DHT22;9576;47.792;9.628;2024-02-21T06:24:54;3.40;99.90
18888;DHT22;9576;47.792;9.628;2024-02-21T06:27:57;3.40;99.90
18888;DHT22;9576;47.792;9.628;2024-02-21T06:30:58;3.30;99.90
18888;DHT22;9576;47.792;9.628;2024-02-21T06:34:00;3.30;99.90
18888;DHT22;9576;47.792;9.628;2024-02-21T06:37:02;3.30;99.90
18888;DHT22;9576;47.792;9.628;2024-02-21T06:40:04;3.40;99.90
18888;DHT22;9576;47.792;9.628;2024-02-21T06:43:08;3.40;99.90
18888;DHT22;9576;47.792;9.628;2024-02-21T06:46:09;3.40;99.90
18888;DHT22;9576;47.792;9.628;2024-02-21T06:49:11;3.40;99.90
18888;DHT22;9576;47.792;9.628;2024-02-21T06:52:17;3.40;99.90
18888;DHT22;9576;47.792;9.628;2024-02-21T06:55:20;3.40;99.90
18888;DHT22;9576;47.792;9.628;2024-02-21T06:58:23;3.50;99.90
18888;DHT22;9576;47.792;9.628;2024-02-21T07:01:25;3.60;99.90
18888;DHT22;9576;47.792;9.628;2024-02-21T07:04:26;3.60;99.90
18888;DHT22;9576;47.792;9.628;2024-02-21T07:07:29;3.70;99.90
18888;DHT22;9576;47.792;9.628;2024-02-21T07:10:31;3.80;99.90
18888;DHT22;9576;47.792;9.628;2024-02-21T07:13:34;3.80;99.90
18888;DHT22;9576;47.792;9.628;2024-02-21T07:16:36;3.70;99.90
18888;DHT22;9576;47.792;9.628;2024-02-21T07:19:37;3.70;99.90
18888;DHT22;9576;47.792;9.628;2024-02-21T07:22:39;3.80;99.90
18888;DHT22;9576;47.792;9.628;2024-02-21T07:25:41;3.90;99.90
18888;DHT22;9576;47.792;9.628;2024-02-21T07:28:44;4.10;99.90
18888;DHT22;9576;47.792;9.628;2024-02-21T07:31:46;4.20;99.90
18888;DHT22;9576;47.792;9.628;2024-02-21T07:34:49;4.30;99.90
18888;DHT22;9576;47.792;9.628;2024-02-21T07:37:50;4.40;99.90
18888;DHT22;9576;47.792;9.628;2024-02-21T07:40:52;4.50;99.90
18888;DHT22;9576;47.792;9.628;2024-02-21T07:43:55;4.50;99.90
18888;DHT22;9576;47.792;9.628;2024-02-21T07:46:57;4.60;99.90
18888;DHT22;9576;47.792;9.628;2024-02-21T07:49:59;4.80;99.90
18888;DHT22;9576;47.792;9.628;2024-02-21T07:53:00;4.80;99.90
18888;DHT22;9576;47.792;9.628;2024-02-21T07:56:02;4.90;99.90
18888;DHT22;9576;47.792;9.628;2024-02-21T07:59:05;4.90;99.90
18888;DHT22;9576;47.792;9.628;2024-02-21T08:02:08;4.80;99.90
18888;DHT22;9576;47.792;9.628;2024-02-21T08:05:10;4.80;99.90
18888;DHT22;9576;47.792;9.628;2024-02-21T08:08:12;4.80;99.90
18888;DHT22;9576;47.792;9.628;2024-02-21T08:11:18;4.70;99.90
18888;DHT22;9576;47.792;9.628;2024-02-21T08:14:21;4.70;99.90
18888;DHT22;9576;47.792;9.628;2024-02-21T08:17:25;4.90;99.90
18888;DHT22;9576;47.792;9.628;2024-02-21T08:20:26;5.10;99.90
18888;DHT22;9576;47.792;9.628;2024-02-21T08:23:28;5.30;99.90
18888;DHT22;9576;47.792;9.628;2024-02-21T08:26:30;5.50;99.90
18888;DHT22;9576;47.792;9.628;2024-02-21T08:29:33;5.60;99.90
18888;DHT22;9576;47.792;9.628;2024-02-21T08:32:34;5.70;99.90
18888;DHT22;9576;47.792;9.628;2024-02-21T08:35:37;6.00;99.90
18888;DHT22;9576;47.792;9.628;2024-02-21T08:38:38;6.00;99.90
18888;DHT22;9576;47.792;9.628;2024-02-21T08:41:40;6.10;99.90
18888;DHT22;9576;47.792;9.628;2024-02-21T08:44:44;6.20;99.90
18888;DHT22;9576;47.792;9.628;2024-02-21T08:47:46;6.30;99.90
18888;DHT22;9576;47.792;9.628;2024-02-21T08:50:47;6.40;99.90
18888;DHT22;9576;47.792;9.628;2024-02-21T08:53:49;6.40;99.90
18888;DHT22;9576;47.792;9.628;2024-02-21T08:56:52;6.50;99.90
18888;DHT22;9576;47.792;9.628;2024-02-21T08:59:55;6.70;99.90
18888;DHT22;9576;47.792;9.628;2024-02-21T09:02:56;6.90;99.90
18888;DHT22;9576;47.792;9.628;2024-02-21T09:05:58;6.90;99.90
18888;DHT22;9576;47.792;9.628;2024-02-21T09:09:00;7.00;99.90
18888;DHT22;9576;47.792;9.628;2024-02-21T09:12:02;7.20;99.90
18888;DHT22;9576;47.792;9.628;2024-02-21T09:15:08;7.30;99.90
18888;DHT22;9576;47.792;9.628;2024-02-21T09:18:09;7.50;99.90
18888;DHT22;9576;47.792;9.628;2024-02-21T09:21:11;7.60;99.90
18888;DHT22;9576;47.792;9.628;2024-02-21T09:24:13;7.90;99.90
18888;DHT22;9576;47.792;9.628;2024-02-21T09:27:14;8.10;99.90
18888;DHT22;9576;47.792;9.628;2024-02-21T09:30:18;8.00;99.90
18888;DHT22;9576;47.792;9.628;2024-02-21T09:33:20;8.20;99.90
18888;DHT22;9576;47.792;9.628;2024-02-21T09:36:22;8.20;99.90
18888;DHT22;9576;47.792;9.628;2024-02-21T09:39:24;8.20;99.90
18888;DHT22;9576;47.792;9.628;2024-02-21T09:42:27;8.40;99.90
18888;DHT22;9576;47.792;9.628;2024-02-21T09:45:34;8.40;99.90
18888;DHT22;9576;47.792;9.628;2024-02-21T09:48:39;8.40;99.90
18888;DHT22;9576;47.792;9.628;2024-02-21T09:51:45;8.40;99.90
18888;DHT22;9576;47.792;9.628;2024-02-21T09:54:48;8.60;99.90
18888;DHT22;9576;47.792;9.628;2024-02-21T09:57:52;8.70;99.90
18888;DHT22;9576;47.792;9.628;2024-02-21T10:00:56;8.70;99.90
18888;DHT22;9576;47.792;9.628;2024-02-21T10:04:00;8.80;99.90
18888;DHT22;9576;47.792;9.628;2024-02-21T10:07:03;8.80;99.90
18888;DHT22;9576;47.792;9.628;2024-02-21T10:10:06;8.90;99.90
18888;DHT22;9576;47.792;9.628;2024-02-21T10:13:07;9.00;99.90
18888;DHT22;9576;47.792;9.628;2024-02-21T10:16:10;9.10;99.90
18888;DHT22;9576;47.792;9.628;2024-02-21T10:19:18;9.30;99.90
18888;DHT22;9576;47.792;9.628;2024-02-21T10:22:20;9.40;99.90
18888;DHT22;9576;47.792;9.628;2024-02-21T10:25:22;9.50;99.90
18888;DHT22;9576;47.792;9.628;2024-02-21T10:28:23;9.50;99.90
18888;DHT22;9576;47.792;9.628;2024-02-21T10:31:27;9.50;99.90
18888;DHT22;9576;47.792;9.628;2024-02-21T10:34:29;9.70;99.90
18888;DHT22;9576;47.792;9.628;2024-02-21T10:37:31;9.90;99.90
18888;DHT22;9576;47.792;9.628;2024-02-21T10:40:32;9.90;99.90
18888;DHT22;9576;47.792;9.628;2024-02-21T10:43:37;10.00;99.90
18888;DHT22;9576;47.792;9.628;2024-02-21T10:46:41;10.10;99.90
18888;DHT22;9576;47.792;9.628;2024-02-21T10:49:44;10.10;99.90
18888;DHT22;9576;47.792;9.628;2024-02-21T10:52:48;10.30;99.90
18888;DHT22;9576;47.792;9.628;2024-02-21T10:55:55;10.30;99.90
18888;DHT22;9576;47.792;9.628;2024-02-21T10:58:58;10.30;99.90
18888;DHT22;9576;47.792;9.628;2024-02-21T11:02:01;10.50;99.90
18888;DHT22;9576;47.792;9.628;2024-02-21T11:05:03;10.60;99.90
18888;DHT22;9576;47.792;9.628;2024-02-21T11:08:05;10.60;99.90
18888;DHT22;9576;47.792;9.628;2024-02-21T11:11:07;10.70;99.90
18888;DHT22;9576;47.792;9.628;2024-02-21T11:14:11;10.80;99.90
18888;DHT22;9576;47.792;9.628;2024-02-21T11:17:15;10.70;99.90
18888;DHT22;9576;47.792;9.628;2024-02-21T11:20:18;10.70;99.90
18888;DHT22;9576;47.792;9.628;2024-02-21T11:23:24;10.60;99.90
18888;DHT22;9576;47.792;9.628;2024-02-21T11:26:27;10.80;99.90
18888;DHT22;9576;47.792;9.628;2024-02-21T11:29:29;10.90;99.90
18888;DHT22;9576;47.792;9.628;2024-02-21T11:32:33;10.90;99.90
18888;DHT22;9576;47.792;9.628;2024-02-21T11:35:35;11.10;99.90
18888;DHT22;9576;47.792;9.628;2024-02-21T11:38:37;11.10;99.90
18888;DHT22;9576;47.792;9.628;2024-02-21T11:41:38;11.10;99.90
18888;DHT22;9576;47.792;9.628;2024-02-21T11:44:40;11.20;99.90
18888;DHT22;9576;47.792;9.628;2024-02-21T11:47:44;11.10;99.90
18888;DHT22;9576;47.792;9.628;2024-02-21T11:50:52;11.10;99.90
18888;DHT22;9576;47.792;9.628;2024-02-21T11:53:55;11.10;99.90
18888;DHT22;9576;47.792;9.628;2024-02-21T11:56:57;11.20;99.90
18888;DHT22;9576;47.792;9.628;2024-02-21T11:59:59;11.40;99.90
18888;DHT22;9576;47.792;9.628;2024-02-21T12:03:12;11.50;99.90
18888;DHT22;9576;47.792;9.628;2024-02-21T12:06:15;11.50;99.90
18888;DHT22;9576;47.792;9.628;2024-02-21T12:09:19;11.50;99.90
18888;DHT22;9576;47.792;9.628;2024-02-21T12:12:21;11.70;99.90
18888;DHT22;9576;47.792;9.628;2024-02-21T12:15:23;11.90;99.90
18888;DHT22;9576;47.792;9.628;2024-02-21T12:18:26;12.00;99.90
18888;DHT22;9576;47.792;9.628;2024-02-21T12:21:29;12.00;99.90
18888;DHT22;9576;47.792;9.628;2024-02-21T12:24:33;12.00;99.90
18888;DHT22;9576;47.792;9.628;2024-02-21T12:27:36;12.30;99.90
18888;DHT22;9576;47.792;9.628;2024-02-21T12:30:37;12.50;99.90
18888;DHT22;9576;47.792;9.628;2024-02-21T12:33:42;12.70;99.90
18888;DHT22;9576;47.792;9.628;2024-02-21T12:36:44;12.90;99.90
18888;DHT22;9576;47.792;9.628;2024-02-21T12:39:47;13.00;99.90
18888;DHT22;9576;47.792;9.628;2024-02-21T12:42:49;13.50;99.90
18888;DHT22;9576;47.792;9.628;2024-02-21T12:45:51;13.80;99.90
18888;DHT22;9576;47.792;9.628;2024-02-21T12:48:55;13.90;99.90
18888;DHT22;9576;47.792;9.628;2024-02-21T12:51:57;14.00;99.90
18888;DHT22;9576;47.792;9.628;2024-02-21T12:54:58;14.00;99.90
18888;DHT22;9576;47.792;9.628;2024-02-21T12:58:03;13.90;99.90
18888;DHT22;9576;47.792;9.628;2024-02-21T13:01:05;13.70;99.90
18888;DHT22;9576;47.792;9.628;2024-02-21T13:04:08;13.60;99.90
18888;DHT22;9576;47.792;9.628;2024-02-21T13:07:09;13.60;99.90
18888;DHT22;9576;47.792;9.628;2024-02-21T13:10:11;13.60;99.90
18888;DHT22;9576;47.792;9.628;2024-02-21T13:13:14;13.70;99.90
18888;DHT22;9576;47.792;9.628;2024-02-21T13:16:16;13.60;99.90
18888;DHT22;9576;47.792;9.628;2024-02-21T13:19:20;13.50;99.90
18888;DHT22;9576;47.792;9.628;2024-02-21T13:22:21;13.40;99.90
18888;DHT22;9576;47.792;9.628;2024-02-21T13:25:26;13.40;99.90
18888;DHT22;9576;47.792;9.628;2024-02-21T13:28:27;13.60;99.90
18888;DHT22;9576;47.792;9.628;2024-02-21T13:31:29;13.90;99.90
18888;DHT22;9576;47.792;9.628;2024-02-21T13:34:32;13.90;99.90
18888;DHT22;9576;47.792;9.628;2024-02-21T13:37:34;14.10;99.90
18888;DHT22;9576;47.792;9.628;2024-02-21T13:40:37;13.90;99.90
18888;DHT22;9576;47.792;9.628;2024-02-21T13:43:39;13.90;99.90
18888;DHT22;9576;47.792;9.628;2024-02-21T13:46:40;13.80;99.90
18888;DHT22;9576;47.792;9.628;2024-02-21T13:49:43;13.50;99.90
18888;DHT22;9576;47.792;9.628;2024-02-21T13:52:45;13.50;99.90
18888;DHT22;9576;47.792;9.628;2024-02-21T13:55:47;13.50;99.90
18888;DHT22;9576;47.792;9.628;2024-02-21T13:58:49;13.50;99.90
18888;DHT22;9576;47.792;9.628;2024-02-21T14:01:51;13.40;99.90
18888;DHT22;9576;47.792;9.628;2024-02-21T14:04:54;13.00;99.90
18888;DHT22;9576;47.792;9.628;2024-02-21T14:07:55;13.00;99.90
18888;DHT22;9576;47.792;9.628;2024-02-21T14:10:57;13.00;99.90
18888;DHT22;9576;47.792;9.628;2024-02-21T14:14:00;12.90;99.90
18888;DHT22;9576;47.792;9.628;2024-02-21T14:17:01;13.00;99.90
18888;DHT22;9576;47.792;9.628;2024-02-21T14:20:05;13.10;99.90
18888;DHT22;9576;47.792;9.628;2024-02-21T14:23:07;12.90;99.90
18888;DHT22;9576;47.792;9.628;2024-02-21T14:26:09;12.60;99.90
18888;DHT22;9576;47.792;9.628;2024-02-21T14:29:11;12.40;99.90
18888;DHT22;9576;47.792;9.628;2024-02-21T14:32:13;12.20;99.90
18888;DHT22;9576;47.792;9.628;2024-02-21T14:35:16;12.20;99.90
18888;DHT22;9576;47.792;9.628;2024-02-21T14:38:18;12.20;99.90
18888;DHT22;9576;47.792;9.628;2024-02-21T14:41:19;12.30;99.90
18888;DHT22;9576;47.792;9.628;2024-02-21T14:44:21;12.30;99.90
18888;DHT22;9576;47.792;9.628;2024-02-21T14:47:23;12.30;99.90
18888;DHT22;9576;47.792;9.628;2024-02-21T14:50:26;12.40;99.90
18888;DHT22;9576;47.792;9.628;2024-02-21T14:53:29;12.30;99.90
18888;DHT22;9576;47.792;9.628;2024-02-21T14:56:31;12.40;99.90
18888;DHT22;9576;47.792;9.628;2024-02-21T14:59:32;12.40;99.90
18888;DHT22;9576;47.792;9.628;2024-02-21T15:02:34;12.40;99.90
18888;DHT22;9576;47.792;9.628;2024-02-21T15:05:37;12.30;99.90
18888;DHT22;9576;47.792;9.628;2024-02-21T15:08:40;12.40;99.90
18888;DHT22;9576;47.792;9.628;2024-02-21T15:11:42;12.30;99.90
18888;DHT22;9576;47.792;9.628;2024-02-21T15:14:44;12.20;99.90
18888;DHT22;9576;47.792;9.628;2024-02-21T15:17:46;12.00;99.90
18888;DHT22;9576;47.792;9.628;2024-02-21T15:20:49;12.00;99.90
18888;DHT22;9576;47.792;9.628;2024-02-21T15:23:50;11.90;99.90
18888;DHT22;9576;47.792;9.628;2024-02-21T15:26:53;11.90;99.90
18888;DHT22;9576;47.792;9.628;2024-02-21T15:29:55;11.70;99.90
18888;DHT22;9576;47.792;9.628;2024-02-21T15:32:57;11.60;99.90
18888;DHT22;9576;47.792;9.628;2024-02-21T15:36:03;11.40;99.90
18888;DHT22;9576;47.792;9.628;2024-02-21T15:39:05;11.30;99.90
18888;DHT22;9576;47.792;9.628;2024-02-21T15:42:08;11.20;99.90
18888;DHT22;9576;47.792;9.628;2024-02-21T15:45:10;11.00;99.90
18888;DHT22;9576;47.792;9.628;2024-02-21T15:48:11;11.10;99.90
18888;DHT22;9576;47.792;9.628;2024-02-21T15:51:15;11.00;99.90
18888;DHT22;9576;47.792;9.628;2024-02-21T15:54:17;11.00;99.90
18888;DHT22;9576;47.792;9.628;2024-02-21T15:57:19;11.00;99.90
18888;DHT22;9576;47.792;9.628;2024-02-21T16:00:21;10.90;99.90
18888;DHT22;9576;47.792;9.628;2024-02-21T16:03:22;10.80;99.90
18888;DHT22;9576;47.792;9.628;2024-02-21T16:06:25;10.80;99.90
18888;DHT22;9576;47.792;9.628;2024-02-21T16:09:28;10.80;99.90
18888;DHT22;9576;47.792;9.628;2024-02-21T16:12:30;10.70;99.90
18888;DHT22;9576;47.792;9.628;2024-02-21T16:15:32;10.60;99.90
18888;DHT22;9576;47.792;9.628;2024-02-21T16:18:34;10.50;99.90
18888;DHT22;9576;47.792;9.628;2024-02-21T16:21:37;10.30;99.90
18888;DHT22;9576;47.792;9.628;2024-02-21T16:24:38;10.30;99.90
18888;DHT22;9576;47.792;9.628;2024-02-21T16:27:40;10.20;99.90
18888;DHT22;9576;47.792;9.628;2024-02-21T16:30:42;10.00;99.90
18888;DHT22;9576;47.792;9.628;2024-02-21T16:33:44;10.00;99.90
18888;DHT22;9576;47.792;9.628;2024-02-21T16:36:47;9.90;99.90
18888;DHT22;9576;47.792;9.628;2024-02-21T16:39:48;9.70;99.90
18888;DHT22;9576;47.792;9.628;2024-02-21T16:42:50;9.70;99.90
18888;DHT22;9576;47.792;9.628;2024-02-21T16:45:52;9.60;99.90
18888;DHT22;9576;47.792;9.628;2024-02-21T16:48:55;9.60;99.90
18888;DHT22;9576;47.792;9.628;2024-02-21T16:51:58;9.50;99.90
18888;DHT22;9576;47.792;9.628;2024-02-21T16:55:00;9.50;99.90
18888;DHT22;9576;47.792;9.628;2024-02-21T16:58:02;9.40;99.90
18888;DHT22;9576;47.792;9.628;2024-02-21T17:01:04;9.40;99.90
18888;DHT22;9576;47.792;9.628;2024-02-21T17:04:07;9.30;99.90
18888;DHT22;9576;47.792;9.628;2024-02-21T17:07:10;9.20;99.90
18888;DHT22;9576;47.792;9.628;2024-02-21T17:10:11;9.30;99.90
18888;DHT22;9576;47.792;9.628;2024-02-21T17:13:13;9.20;99.90
18888;DHT22;9576;47.792;9.628;2024-02-21T17:16:15;9.30;99.90
18888;DHT22;9576;47.792;9.628;2024-02-21T17:19:16;9.30;99.90
18888;DHT22;9576;47.792;9.628;2024-02-21T17:22:20;9.30;99.90
18888;DHT22;9576;47.792;9.628;2024-02-21T17:25:21;9.30;99.90
18888;DHT22;9576;47.792;9.628;2024-02-21T17:28:23;9.40;99.90
18888;DHT22;9576;47.792;9.628;2024-02-21T17:31:25;9.40;99.90
18888;DHT22;9576;47.792;9.628;2024-02-21T17:34:28;9.30;99.90
18888;DHT22;9576;47.792;9.628;2024-02-21T17:37:31;9.30;99.90
18888;DHT22;9576;47.792;9.628;2024-02-21T17:40:34;9.20;99.90
18888;DHT22;9576;47.792;9.628;2024-02-21T17:43:35;9.10;99.90
18888;DHT22;9576;47.792;9.628;2024-02-21T17:46:40;9.10;99.90
18888;DHT22;9576;47.792;9.628;2024-02-21T17:49:42;9.00;99.90
18888;DHT22;9576;47.792;9.628;2024-02-21T17:52:45;8.90;99.90
18888;DHT22;9576;47.792;9.628;2024-02-21T17:55:47;8.90;99.90
18888;DHT22;9576;47.792;9.628;2024-02-21T17:58:49;8.80;99.90
18888;DHT22;9576;47.792;9.628;2024-02-21T18:01:50;8.80;99.90
18888;DHT22;9576;47.792;9.628;2024-02-21T18:04:52;8.70;99.90
18888;DHT22;9576;47.792;9.628;2024-02-21T18:07:56;8.70;99.90
18888;DHT22;9576;47.792;9.628;2024-02-21T18:10:58;8.70;99.90
18888;DHT22;9576;47.792;9.628;2024-02-21T18:14:00;8.60;99.90
18888;DHT22;9576;47.792;9.628;2024-02-21T18:17:05;8.60;99.90
18888;DHT22;9576;47.792;9.628;2024-02-21T18:20:07;8.60;99.90
18888;DHT22;9576;47.792;9.628;2024-02-21T18:23:10;8.50;99.90
18888;DHT22;9576;47.792;9.628;2024-02-21T18:26:12;8.50;99.90
18888;DHT22;9576;47.792;9.628;2024-02-21T18:29:14;8.50;99.90
18888;DHT22;9576;47.792;9.628;2024-02-21T18:32:16;8.40;99.90
18888;DHT22;9576;47.792;9.628;2024-02-21T18:35:18;8.40;99.90
18888;DHT22;9576;47.792;9.628;2024-02-21T18:38:21;8.40;99.90
18888;DHT22;9576;47.792;9.628;2024-02-21T18:41:23;8.40;99.90
18888;DHT22;9576;47.792;9.628;2024-02-21T18:44:24;8.40;99.90
18888;DHT22;9576;47.792;9.628;2024-02-21T18:47:26;8.50;99.90
18888;DHT22;9576;47.792;9.628;2024-02-21T18:50:28;8.50;99.90
18888;DHT22;9576;47.792;9.628;2024-02-21T18:53:31;8.50;99.90
18888;DHT22;9576;47.792;9.628;2024-02-21T18:56:32;8.50;99.90
18888;DHT22;9576;47.792;9.628;2024-02-21T18:59:36;8.50;99.90
18888;DHT22;9576;47.792;9.628;2024-02-21T19:02:38;8.60;99.90
18888;DHT22;9576;47.792;9.628;2024-02-21T19:05:39;8.60;99.90
18888;DHT22;9576;47.792;9.628;2024-02-21T19:08:42;8.60;99.90
18888;DHT22;9576;47.792;9.628;2024-02-21T19:11:44;8.60;99.90
18888;DHT22;9576;47.792;9.628;2024-02-21T19:14:46;8.60;99.90
18888;DHT22;9576;47.792;9.628;2024-02-21T19:17:47;8.60;99.90
18888;DHT22;9576;47.792;9.628;2024-02-21T19:20:49;8.50;99.90
18888;DHT22;9576;47.792;9.628;2024-02-21T19:23:53;8.50;99.90
18888;DHT22;9576;47.792;9.628;2024-02-21T19:26:55;8.60;99.90
18888;DHT22;9576;47.792;9.628;2024-02-21T19:29:56;8.60;99.90
18888;DHT22;9576;47.792;9.628;2024-02-21T19:32:58;8.60;99.90
18888;DHT22;9576;47.792;9.628;2024-02-21T19:36:00;8.50;99.90
18888;DHT22;9576;47.792;9.628;2024-02-21T19:39:03;8.50;99.90
18888;DHT22;9576;47.792;9.628;2024-02-21T19:42:04;8.50;99.90
18888;DHT22;9576;47.792;9.628;2024-02-21T19:45:07;8.50;99.90